Terminal Aerodrome Forecast
Issued by NWS

Home | Current Version | Previous Version | Text Only | Print | Product List | Glossary On
Versions: 1 2 3 4 5 6 7 8 9 10 11 12 13 14 15 16 17 18
249
FTUS45 KRIW 221120
TAFCPR
TAF
KCPR 221120Z 2212/2312 VRB05KT P6SM VCFG FEW002
     FM221400 21009KT P6SM SCT100
     FM221600 22012G20KT P6SM SCT100 BKN200
     FM221800 24020G30KT P6SM SCT090 BKN200
     FM230100 24012KT P6SM SCT090 BKN200
     FM230900 24009KT P6SM BKN100=

USA.gov is the U.S. government's official web portal to all federal, state and local government web resources and services.